Time;durP1;ratioP1;P1;durP2;ratioP2;P2;SDS_P1;SDS_P2;PMS_P1;PMS_P2;Temp;Humidity;BMP_temperature;BMP_pressure;BME280_temperature;BME280_humidity;BME280_pressure;Samples;Min_cycle;Max_cycle;Signal;HPM_P1;HPM_P2
2022/06/17 00:00:22;;;;;;;6.13;1.40;;;;;;;17.46;67.80;100384.18;1429127;91;21485;-81
2022/06/17 00:02:48;;;;;;;2.73;1.43;;;;;;;17.47;67.70;100388.53;1388764;93;21400;-81
2022/06/17 00:05:15;;;;;;;1.73;1.30;;;;;;;17.48;68.03;100390.17;1408101;93;21391;-81
2022/06/17 00:07:43;;;;;;;9.63;1.30;;;;;;;17.54;67.68;100385.38;1401405;92;22585;-81
2022/06/17 00:10:23;;;;;;;2.07;1.33;;;;;;;17.54;68.35;100381.37;1416616;91;21605;-81
2022/06/17 00:12:50;;;;;;;6.90;1.30;;;;;;;17.57;68.01;100391.68;1404799;92;21564;-81
2022/06/17 00:15:17;;;;;;;2.33;1.40;;;;;;;17.59;68.65;100384.81;1408477;92;21525;-81
2022/06/17 00:17:52;;;;;;;3.40;1.30;;;;;;;17.54;69.73;100394.75;1409341;92;21435;-81
2022/06/17 00:20:19;;;;;;;1.93;1.47;;;;;;;17.52;69.00;100394.14;1442914;89;22374;-80
2022/06/17 00:22:46;;;;;;;2.50;1.50;;;;;;;17.53;68.54;100393.63;1444391;90;21442;-80
2022/06/17 00:25:23;;;;;;;6.77;1.37;;;;;;;17.52;68.50;100399.48;1448014;90;21420;-81
2022/06/17 00:27:49;;;;;;;5.10;1.73;;;;;;;17.50;69.87;100401.52;1434920;90;21443;-81
2022/06/17 00:30:23;;;;;;;1.80;1.20;;;;;;;17.48;70.12;100403.55;1443722;90;21428;-81
2022/06/17 00:32:56;;;;;;;1.90;1.30;;;;;;;17.52;69.42;100401.31;1425975;90;21376;-81
2022/06/17 00:35:26;;;;;;;1.67;1.40;;;;;;;17.53;70.03;100400.31;1420856;92;21333;-81
2022/06/17 00:37:52;;;;;;;4.35;1.50;;;;;;;17.56;69.05;100408.77;1416410;91;21605;-81
2022/06/17 00:40:23;;;;;;;2.50;1.30;;;;;;;17.56;68.68;100402.08;1416433;91;21429;-81
2022/06/17 00:42:50;;;;;;;2.57;1.20;;;;;;;17.60;68.02;100400.66;1440966;90;21561;-81
2022/06/17 00:45:37;;;;;;;3.07;1.50;;;;;;;17.62;68.50;100405.01;1424796;90;22402;-81
2022/06/17 00:48:26;;;;;;;6.33;1.63;;;;;;;17.63;69.29;100407.98;1433405;90;21612;-81
2022/06/17 00:51:00;;;;;;;1.60;1.50;;;;;;;17.66;68.97;100418.30;1446737;90;21536;-82
2022/06/17 00:53:34;;;;;;;2.47;2.00;;;;;;;17.66;68.45;100419.13;1383209;94;21619;-81
2022/06/17 00:56:12;;;;;;;2.63;1.40;;;;;;;17.69;68.11;100441.48;1424610;90;21523;-81
2022/06/17 00:59:03;;;;;;;3.13;1.47;;;;;;;17.71;67.64;100446.14;1428632;91;21567;-81
2022/06/17 01:01:59;;;;;;;3.37;1.47;;;;;;;17.73;67.20;100454.00;1429660;89;21576;-81
2022/06/17 01:04:37;;;;;;;3.93;2.00;;;;;;;17.74;67.90;100452.45;1418319;90;21438;-82
2022/06/17 01:07:17;;;;;;;8.07;1.50;;;;;;;17.79;67.88;100447.89;1431453;90;21419;-83
2022/06/17 01:09:58;;;;;;;2.00;1.40;;;;;;;17.85;68.40;100442.27;1441803;90;22381;-83
2022/06/17 01:12:30;;;;;;;3.58;1.57;;;;;;;17.92;67.98;100427.07;1424830;90;21434;-83
2022/06/17 01:14:58;;;;;;;13.00;1.57;;;;;;;17.97;67.61;100421.45;1435681;90;21575;-81
2022/06/17 01:17:25;;;;;;;1.80;1.10;;;;;;;17.99;67.64;100432.80;1421423;91;21598;-81
2022/06/17 01:19:58;;;;;;;1.67;1.33;;;;;;;17.98;67.38;100445.88;1430306;90;21376;-81
2022/06/17 01:22:41;;;;;;;5.40;1.63;;;;;;;17.95;67.39;100448.09;1426055;89;21464;-81
2022/06/17 01:25:25;;;;;;;2.87;1.50;;;;;;;17.93;67.11;100446.15;1381762;94;21517;-81
2022/06/17 01:27:56;;;;;;;4.13;1.60;;;;;;;17.92;66.95;100448.48;1428915;91;21553;-82
2022/06/17 01:30:30;;;;;;;1.73;1.33;;;;;;;17.92;67.37;100445.30;1418841;92;21472;-82
2022/06/17 01:33:01;;;;;;;4.00;1.70;;;;;;;17.94;67.63;100443.78;1438302;90;21457;-81
2022/06/17 01:35:33;;;;;;;3.67;1.77;;;;;;;17.97;67.58;100429.48;1426285;91;21419;-81
2022/06/17 01:38:00;;;;;;;2.93;1.50;;;;;;;18.01;67.32;100433.44;1394748;94;21405;-81
2022/06/17 01:40:28;;;;;;;1.47;1.37;;;;;;;18.03;66.90;100426.53;1433729;91;21331;-81
2022/06/17 01:43:01;;;;;;;1.80;1.70;;;;;;;18.04;66.76;100425.01;1430164;90;21560;-81
2022/06/17 01:45:29;;;;;;;3.13;1.50;;;;;;;18.04;66.87;100422.33;1432232;90;22395;-82
2022/06/17 01:47:55;;;;;;;4.43;1.67;;;;;;;18.05;66.88;100412.44;1435537;90;21547;-82
2022/06/17 01:50:27;;;;;;;3.10;1.63;;;;;;;18.04;66.64;100410.28;1434905;90;21353;-81
2022/06/17 01:53:02;;;;;;;2.33;1.30;;;;;;;18.03;66.50;100403.25;1444165;90;21772;-81
2022/06/17 01:55:39;;;;;;;2.57;1.40;;;;;;;18.02;66.33;100405.63;1433365;90;21501;-81
2022/06/17 01:58:14;;;;;;;2.47;1.60;;;;;;;18.02;66.83;100403.47;1398419;92;21648;-81
2022/06/17 02:00:42;;;;;;;10.60;1.87;;;;;;;18.03;66.76;100398.41;1442551;90;22744;-81
2022/06/17 02:03:22;;;;;;;4.33;1.70;;;;;;;18.04;66.53;100395.55;1445636;90;22552;-81
2022/06/17 02:05:53;;;;;;;1.92;1.70;;;;;;;18.07;66.55;100390.80;1421137;91;21597;-81
2022/06/17 02:08:19;;;;;;;2.33;1.50;;;;;;;18.08;66.61;100395.98;1435437;90;21457;-81
2022/06/17 02:10:49;;;;;;;2.37;1.73;;;;;;;18.06;67.23;100394.00;1425124;90;21578;-81
2022/06/17 02:13:16;;;;;;;4.83;1.50;;;;;;;18.01;67.55;100393.27;1427798;90;21516;-80
2022/06/17 02:15:44;;;;;;;3.07;2.00;;;;;;;17.93;67.74;100393.42;1427561;90;21450;-80
2022/06/17 02:18:18;;;;;;;2.40;1.40;;;;;;;17.88;67.91;100391.84;1448702;90;21560;-81
2022/06/17 02:20:49;;;;;;;4.97;2.17;;;;;;;17.86;68.07;100389.86;1426585;90;21442;-81
2022/06/17 02:23:15;;;;;;;;;;;;;;;17.86;68.29;100385.02;1395765;92;22472;-80
2022/06/17 02:25:46;;;;;;;2.43;1.60;;;;;;;17.82;70.18;100379.23;1398505;92;20334;-80
2022/06/17 02:28:13;;;;;;;4.93;1.83;;;;;;;17.80;68.68;100382.61;1446125;90;21471;-81
2022/06/17 02:30:42;;;;;;;2.77;1.90;;;;;;;17.76;68.76;100369.29;1426252;90;21517;-81
2022/06/17 02:33:10;;;;;;;2.67;1.97;;;;;;;17.72;68.98;100374.70;1435347;90;21457;-80
2022/06/17 02:36:00;;;;;;;4.37;1.73;;;;;;;17.64;68.97;100369.01;1430229;90;22459;-80
2022/06/17 02:38:31;;;;;;;2.92;1.70;;;;;;;17.58;69.40;100367.11;1419873;92;22531;-81
2022/06/17 02:41:05;;;;;;;3.17;1.30;;;;;;;17.49;70.34;100363.76;1417276;92;21383;-81
2022/06/17 02:43:32;;;;;;;1.63;1.40;;;;;;;17.41;71.05;100374.59;1415598;90;22458;-81
2022/06/17 02:46:06;;;;;;;5.23;2.17;;;;;;;17.40;70.26;100371.58;1431676;91;22218;-81
2022/06/17 02:48:41;;;;;;;3.17;1.90;;;;;;;17.37;70.61;100373.31;1428372;90;21479;-81
2022/06/17 02:51:08;;;;;;;8.57;2.37;;;;;;;17.33;70.96;100380.08;1435190;91;21593;-82
2022/06/17 02:53:37;;;;;;;1.97;1.73;;;;;;;17.30;70.67;100376.45;1430195;91;22510;-82
2022/06/17 02:56:08;;;;;;;2.25;1.57;;;;;;;17.28;71.29;100376.63;1432375;90;21435;-82
2022/06/17 02:59:15;;;;;;;2.50;1.70;;;;;;;17.26;72.11;100379.18;1422279;91;21472;-81
2022/06/17 03:01:42;;;;;;;7.30;2.03;;;;;;;17.26;72.14;100388.54;1389538;93;21507;-81
2022/06/17 03:04:19;;;;;;;1.80;1.30;;;;;;;17.25;71.93;100391.73;1443475;90;21532;-82
2022/06/17 03:06:47;;;;;;;7.20;2.83;;;;;;;17.29;72.01;100396.17;1438074;90;21583;-81
2022/06/17 03:09:25;;;;;;;2.80;1.83;;;;;;;17.27;72.55;100408.94;1434144;91;22798;-81
2022/06/17 03:12:22;;;;;;;3.23;1.47;;;;;;;17.27;72.27;100411.61;1434353;91;22432;-81
2022/06/17 03:15:00;;;;;;;1.53;1.23;;;;;;;17.24;73.04;100413.33;1432641;90;21508;-81
2022/06/17 03:17:26;;;;;;;3.97;1.77;;;;;;;17.31;72.73;100420.89;1440260;90;21442;-80
2022/06/17 03:19:59;;;;;;;1.53;1.43;;;;;;;17.33;72.34;100424.22;1429967;91;21455;-81
2022/06/17 03:22:26;;;;;;;4.70;1.40;;;;;;;17.32;72.47;100428.74;1430994;90;21398;-81
2022/06/17 03:25:24;;;;;;;1.70;1.23;;;;;;;17.33;72.26;100432.23;1434425;90;21509;-81
2022/06/17 03:27:55;;;;;;;1.70;1.60;;;;;;;17.32;72.57;100437.25;1430082;91;21470;-81
2022/06/17 03:30:26;;;;;;;1.70;1.37;;;;;;;17.33;72.29;100438.92;1436715;90;21523;-81
2022/06/17 03:33:01;;;;;;;3.37;1.83;;;;;;;17.32;72.17;100442.59;1441505;90;23417;-80
2022/06/17 03:35:31;;;;;;;2.60;1.40;;;;;;;17.34;71.82;100455.28;1425104;90;21450;-81
2022/06/17 03:38:08;;;;;;;4.50;1.67;;;;;;;17.33;72.04;100459.81;1407848;93;21540;-81
2022/06/17 03:40:43;;;;;;;2.30;1.80;;;;;;;17.34;72.26;100470.00;1401168;92;21384;-81
2022/06/17 03:43:18;;;;;;;5.27;1.93;;;;;;;17.36;71.81;100474.66;1428729;91;21458;-81
2022/06/17 03:46:01;;;;;;;8.03;2.70;;;;;;;17.32;71.49;100478.23;1410563;93;22587;-81
2022/06/17 03:49:09;;;;;;;2.00;1.73;;;;;;;17.33;71.40;100479.88;1441117;90;21428;-81
2022/06/17 03:51:38;;;;;;;2.43;1.70;;;;;;;17.36;70.91;100474.14;1435606;91;21472;-80
2022/06/17 03:54:05;;;;;;;4.03;1.30;;;;;;;17.41;71.19;100489.62;1436201;90;21457;-81
2022/06/17 03:56:35;;;;;;;2.97;1.53;;;;;;;17.49;70.87;100483.30;1445565;90;21413;-81
2022/06/17 03:59:07;;;;;;;3.23;1.70;;;;;;;17.52;70.56;100483.77;1441094;90;21495;-81
2022/06/17 04:01:51;;;;;;;3.53;1.50;;;;;;;17.56;70.02;100488.22;1458040;90;21568;-84
2022/06/17 04:04:27;;;;;;;1.50;1.40;;;;;;;17.59;69.68;100498.03;1439478;90;21679;-81
2022/06/17 04:06:58;;;;;;;2.93;1.57;;;;;;;17.56;69.81;100494.40;1428854;91;21612;-81
2022/06/17 04:09:31;;;;;;;4.22;2.33;;;;;;;17.55;69.74;100496.77;1439519;90;21993;-81
2022/06/17 04:12:20;;;;;;;1.80;1.43;;;;;;;17.56;69.64;100497.08;1428382;91;21479;-81
2022/06/17 04:15:10;;;;;;;2.80;1.60;;;;;;;17.62;70.13;100499.50;1433677;91;22395;-80
2022/06/17 04:17:48;;;;;;;3.10;1.63;;;;;;;17.70;69.79;100497.21;1435501;91;21398;-80
2022/06/17 04:20:45;;;;;;;1.80;1.47;;;;;;;17.81;69.56;100494.05;1428527;91;21523;-80
2022/06/17 04:23:23;;;;;;;4.63;1.90;;;;;;;17.88;69.55;100500.78;1419798;92;21542;-81
2022/06/17 04:26:19;;;;;;;13.60;2.30;;;;;;;17.97;69.54;100508.47;1456761;90;21945;-81
2022/06/17 04:28:53;;;;;;;3.90;2.10;;;;;;;18.03;69.27;100505.02;1404676;93;21434;-81
2022/06/17 04:31:24;;;;;;;3.43;1.77;;;;;;;18.09;69.06;100507.42;1442709;90;22455;-81
2022/06/17 04:34:15;;;;;;;11.53;1.93;;;;;;;18.16;68.90;100506.97;1440371;89;21943;-81
2022/06/17 04:36:46;;;;;;;13.17;2.90;;;;;;;18.21;68.15;100505.89;1427168;91;22293;-82
2022/06/17 04:39:26;;;;;;;18.77;2.67;;;;;;;18.33;68.35;100512.86;1411238;90;21605;-82
2022/06/17 04:41:56;;;;;;;2.50;2.25;;;;;;;18.43;68.32;100515.18;1406293;92;22515;-81
2022/06/17 04:44:23;;;;;;;6.10;2.65;;;;;;;18.43;67.68;100511.98;1418074;92;22301;-81
2022/06/17 04:47:06;;;;;;;8.10;2.50;;;;;;;18.44;67.96;100510.98;1424307;90;21361;-82
2022/06/17 04:49:37;;;;;;;4.63;2.80;;;;;;;18.37;67.78;100507.41;1403484;91;21508;-81
2022/06/17 04:52:08;;;;;;;6.10;3.20;;;;;;;18.38;67.70;100514.42;1438251;90;21643;-82
2022/06/17 04:54:37;;;;;;;11.73;2.87;;;;;;;18.45;67.63;100511.28;1399610;92;21458;-82
2022/06/17 04:57:05;;;;;;;5.23;3.10;;;;;;;18.53;67.24;100512.98;1438614;90;21443;-81
2022/06/17 04:59:40;;;;;;;12.30;3.47;;;;;;;18.64;66.73;100515.59;1434234;90;22470;-87
2022/06/17 05:02:24;;;;;;;15.10;3.70;;;;;;;18.74;66.58;100514.77;1435395;90;21553;-86
2022/06/17 05:04:55;;;;;;;6.57;4.10;;;;;;;18.87;66.66;100518.86;1431054;91;21448;-87
2022/06/17 05:07:21;;;;;;;15.33;3.73;;;;;;;19.00;66.05;100518.59;1444185;89;21626;-86
2022/06/17 05:10:05;;;;;;;17.77;3.83;;;;;;;19.11;65.83;100519.36;1402210;93;21345;-89
2022/06/17 05:12:39;;;;;;;16.00;5.10;;;;;;;19.18;64.72;100520.72;1444337;90;21386;-88
2022/06/17 05:15:14;;;;;;;16.23;3.23;;;;;;;19.20;64.36;100522.17;1431564;90;21583;-89
2022/06/17 05:17:40;;;;;;;7.77;3.40;;;;;;;19.18;64.82;100520.72;1416683;90;22478;-90
2022/06/17 05:20:14;;;;;;;6.90;3.50;;;;;;;19.26;64.06;100515.99;1416578;91;21457;-84
2022/06/17 05:23:05;;;;;;;4.93;3.67;;;;;;;19.26;63.59;100523.22;1434468;90;22316;-90
2022/06/17 05:25:36;;;;;;;7.50;4.67;;;;;;;19.30;63.26;100519.91;1431397;90;22321;-90
2022/06/17 05:28:06;;;;;;;5.57;3.87;;;;;;;19.32;62.90;100516.52;1431265;91;22322;-87
2022/06/17 05:30:39;;;;;;;9.83;4.53;;;;;;;19.41;62.57;100514.47;1434514;90;21391;-90
2022/06/17 05:33:06;;;;;;;7.00;4.93;;;;;;;19.36;61.21;100517.78;1423870;90;22352;-91
2022/06/17 05:35:32;;;;;;;34.13;5.53;;;;;;;19.52;62.46;100524.62;1445904;90;21353;-90
2022/06/17 05:37:58;;;;;;;12.87;5.07;;;;;;;19.54;61.46;100520.40;1445498;90;21412;-88
2022/06/17 05:40:26;;;;;;;13.27;4.93;;;;;;;19.59;61.31;100516.56;1427999;91;22307;-87
2022/06/17 05:42:52;;;;;;;11.97;5.03;;;;;;;19.63;60.63;100520.51;1428296;91;22505;-91
2022/06/17 05:45:24;;;;;;;13.40;4.60;;;;;;;19.62;60.26;100518.84;1409200;91;21414;-90
2022/06/17 05:47:50;;;;;;;8.80;4.80;;;;;;;19.73;60.60;100526.84;1429216;91;22050;-85
2022/06/17 05:50:18;;;;;;;5.55;4.83;;;;;;;19.86;60.73;100515.30;1435814;90;21989;-86
2022/06/17 05:52:57;;;;;;;5.65;4.85;;;;;;;20.00;60.43;100531.20;1418750;91;21516;-87
2022/06/17 05:55:28;;;;;;;4.97;4.03;;;;;;;20.11;60.35;100528.41;1425432;91;21493;-84
2022/06/17 05:57:54;;;;;;;4.85;4.45;;;;;;;20.06;58.29;100530.37;1428459;91;21471;-85
2022/06/17 06:00:23;;;;;;;8.23;5.50;;;;;;;19.98;58.34;100536.47;1428635;91;21438;-82
2022/06/17 06:02:50;;;;;;;21.42;5.87;;;;;;;20.04;58.60;100543.70;1417254;90;21517;-82
2022/06/17 06:05:21;;;;;;;13.03;5.28;;;;;;;20.19;58.38;100543.48;1402447;92;21570;-82
2022/06/17 06:07:48;;;;;;;17.10;4.50;;;;;;;20.24;58.11;100539.13;1398975;93;21458;-82
2022/06/17 06:10:16;;;;;;;6.05;4.20;;;;;;;20.09;57.79;100542.56;1427594;90;21508;-82
2022/06/17 06:13:00;;;;;;;7.87;4.55;;;;;;;20.24;58.37;100548.54;1413353;91;21454;-82
2022/06/17 06:15:40;;;;;;;16.37;4.95;;;;;;;20.32;58.16;100546.69;1393021;94;22315;-82
2022/06/17 06:18:08;;;;;;;;;;;;;;;20.38;58.33;100552.56;1436680;91;21442;-82
2022/06/17 06:20:34;;;;;;;9.03;4.20;;;;;;;20.43;57.92;100552.77;1438603;90;20849;-82
2022/06/17 06:23:00;;;;;;;7.78;4.25;;;;;;;20.53;58.15;100546.98;1452611;90;21486;-82
2022/06/17 06:25:26;;;;;;;23.50;5.10;;;;;;;20.46;56.82;100550.48;1398741;92;21481;-81
2022/06/17 06:27:52;;;;;;;7.00;3.72;;;;;;;20.49;57.42;100554.09;1429824;90;22402;-81
2022/06/17 06:30:30;;;;;;;8.73;4.75;;;;;;;20.52;57.62;100556.89;1437120;90;21449;-81
2022/06/17 06:33:00;;;;;;;6.10;4.28;;;;;;;20.70;58.28;100554.39;1447550;90;21412;-83
2022/06/17 06:35:37;;;;;;;6.40;4.70;;;;;;;20.79;56.56;100554.16;1427091;90;21349;-81
2022/06/17 06:38:05;;;;;;;8.23;4.80;;;;;;;20.80;56.47;100561.18;1444075;90;21466;-83
2022/06/17 06:40:34;;;;;;;17.55;6.08;;;;;;;20.93;56.59;100567.88;1430311;90;21420;-81
2022/06/17 06:43:00;;;;;;;6.33;4.60;;;;;;;21.12;57.11;100571.02;1450938;90;21339;-82
2022/06/17 06:45:31;;;;;;;8.08;5.22;;;;;;;21.28;56.29;100564.83;1403764;92;21416;-82
2022/06/17 06:48:01;;;;;;;4.80;4.37;;;;;;;21.38;56.20;100570.62;1445639;90;21524;-82
2022/06/17 06:50:31;;;;;;;12.15;5.42;;;;;;;21.41;55.37;100568.84;1415163;92;21408;-81
2022/06/17 06:52:57;;;;;;;9.73;3.92;;;;;;;;;;1434641;91;21887;-81
2022/06/17 06:55:24;;;;;;;11.60;5.65;;;;;;;21.49;53.82;100562.36;1429721;90;21655;-82
2022/06/17 06:57:58;;;;;;;10.05;4.53;;;;;;;21.49;53.55;100565.91;1447661;89;21397;-82
2022/06/17 07:00:32;;;;;;;8.23;3.72;;;;;;;21.60;53.76;100569.75;1447031;89;21492;-82
2022/06/17 07:02:58;;;;;;;15.45;5.78;;;;;;;21.66;53.95;100570.75;1424992;91;21354;-82
2022/06/17 07:05:24;;;;;;;5.35;4.12;;;;;;;21.79;53.78;100559.37;1455397;89;21352;-82
2022/06/17 07:07:50;;;;;;;4.87;3.87;;;;;;;21.88;52.25;100555.07;1427252;90;21486;-83
2022/06/17 07:10:22;;;;;;;5.17;4.30;;;;;;;21.77;52.05;100554.72;1435518;90;21412;-82
2022/06/17 07:12:49;;;;;;;4.97;3.60;;;;;;;21.89;52.18;100549.97;1429915;91;21317;-82
2022/06/17 07:15:16;;;;;;;9.18;4.53;;;;;;;21.99;53.31;100552.48;1423448;91;22456;-82
2022/06/17 07:18:06;;;;;;;8.10;4.40;;;;;;;22.06;52.25;100550.55;1435591;91;21449;-82
2022/06/17 07:20:38;;;;;;;7.72;4.12;;;;;;;22.08;52.31;100556.55;1442625;91;22396;-82
2022/06/17 07:23:11;;;;;;;4.83;3.30;;;;;;;22.24;52.18;100557.06;1435372;91;21331;-82
2022/06/17 07:25:38;;;;;;;4.60;3.70;;;;;;;22.34;50.79;100553.89;1411681;93;22720;-82
2022/06/17 07:28:06;;;;;;;10.25;4.17;;;;;;;22.39;50.21;100548.13;1434642;90;21488;-82
2022/06/17 07:30:35;;;;;;;5.45;4.03;;;;;;;22.55;51.02;100556.67;1434418;90;21400;-82
2022/06/17 07:33:02;;;;;;;6.97;4.30;;;;;;;22.57;50.30;100555.94;1436396;90;21368;-82
2022/06/17 07:35:29;;;;;;;4.60;3.98;;;;;;;22.82;49.56;100559.40;1438717;90;22314;-82
2022/06/17 07:40:44;;;;;;;19.60;4.78;;;;;;;22.85;48.70;100563.52;1420272;90;21406;-82
2022/06/17 07:43:08;;;;;;;9.98;3.77;;;;;;;22.85;48.20;100567.04;1436821;90;21635;-82
2022/06/17 07:45:34;;;;;;;3.25;2.62;;;;;;;22.91;48.44;100566.14;1443140;90;21524;-82
2022/06/17 07:48:01;;;;;;;4.42;3.17;;;;;;;22.99;48.32;100573.15;1410571;91;21531;-82
2022/06/17 07:50:32;;;;;;;5.45;3.65;;;;;;;23.11;48.01;100569.16;1423558;89;21457;-82
2022/06/17 07:52:58;;;;;;;3.35;2.92;;;;;;;23.20;48.98;100569.14;1413693;90;21428;-82
2022/06/17 07:55:25;;;;;;;47.45;5.95;;;;;;;23.40;48.23;100558.89;1426994;90;22264;-83
2022/06/17 07:57:51;;;;;;;6.33;2.60;;;;;;;23.57;47.99;100559.08;1442139;90;21405;-82
2022/06/17 08:00:33;;;;;;;9.30;3.22;;;;;;;23.69;47.80;100564.52;1431440;90;21390;-82
2022/06/17 08:03:00;;;;;;;8.40;3.27;;;;;;;23.79;47.60;100572.89;1422618;91;23417;-83
2022/06/17 08:05:26;;;;;;;11.78;3.30;;;;;;;23.94;45.67;100566.23;1436448;90;21535;-82
2022/06/17 08:07:54;;;;;;;8.58;2.98;;;;;;;24.05;46.51;100566.77;1437520;90;22065;-82
2022/06/17 08:10:26;;;;;;;5.90;2.50;;;;;;;24.08;45.83;100570.36;1478614;91;21421;-82
2022/06/17 08:12:52;;;;;;;6.83;3.00;;;;;;;23.96;45.23;100573.05;1438464;90;21319;-82
2022/06/17 08:15:20;;;;;;;4.25;2.60;;;;;;;24.14;46.11;100576.22;1358936;91;21384;-83
2022/06/17 08:17:47;;;;;;;12.73;2.87;;;;;;;24.25;44.99;100582.13;1359116;91;21407;-82
2022/06/17 08:20:26;;;;;;;8.70;3.05;;;;;;;24.31;45.20;100583.93;1445975;90;21498;-82
2022/06/17 08:22:53;;;;;;;3.25;2.90;;;;;;;24.35;44.63;100575.34;1506935;90;21438;-82
2022/06/17 08:25:20;;;;;;;13.18;3.10;;;;;;;24.30;44.98;100580.91;1496727;90;22530;-81
2022/06/17 08:27:52;;;;;;;18.55;2.35;;;;;;;24.36;43.44;100583.73;1345747;92;21288;-82
2022/06/17 08:30:23;;;;;;;7.12;3.10;;;;;;;24.48;45.19;100587.29;1325462;93;21353;-82
2022/06/17 08:32:53;;;;;;;11.48;3.72;;;;;;;24.47;43.43;100587.01;1417330;89;21502;-83
2022/06/17 08:35:25;;;;;;;7.00;2.77;;;;;;;24.43;43.78;100584.49;1511413;91;21337;-82
2022/06/17 08:37:56;;;;;;;34.03;3.52;;;;;;;24.48;44.42;100586.76;1350501;91;21421;-82
2022/06/17 08:40:37;;;;;;;6.15;2.65;;;;;;;24.50;43.95;100575.72;1333932;93;21482;-82
2022/06/17 08:43:25;;;;;;;3.70;2.42;;;;;;;24.59;43.19;100573.47;1444077;89;21185;-81
2022/06/17 08:46:35;;;;;;;5.50;2.58;;;;;;;24.78;42.27;100579.58;1497190;90;22830;-82
2022/06/17 08:49:50;;;;;;;9.20;2.02;;;;;;;24.86;42.00;100577.33;1319411;95;21347;-90
2022/06/17 08:52:45;;;;;;;3.08;2.17;;;;;;;25.04;41.61;100576.34;1489759;90;21288;-90
2022/06/17 08:55:24;;;;;;;72.17;6.72;;;;;;;25.12;41.13;100584.09;1461386;90;21450;-87
2022/06/17 08:58:07;;;;;;;1.95;1.60;;;;;;;25.14;41.03;100580.63;1488914;91;22171;-90
2022/06/17 09:00:53;;;;;;;7.12;3.37;;;;;;;25.02;41.31;100579.81;1517684;90;21333;-89
2022/06/17 09:03:27;;;;;;;6.47;2.85;;;;;;;25.15;41.95;100576.88;1506352;90;21321;-88
2022/06/17 09:06:21;;;;;;;29.92;4.33;;;;;;;24.81;41.07;100580.45;1427921;90;21383;-90
2022/06/17 09:09:34;;;;;;;21.20;4.28;;;;;;;24.67;40.88;100586.11;1506522;90;22346;-89
2022/06/17 09:12:15;;;;;;;3.90;2.58;;;;;;;24.67;41.42;100584.76;1500861;90;22235;-89
2022/06/17 09:15:02;;;;;;;8.48;3.47;;;;;;;24.92;42.04;100589.09;1516243;90;21317;-88
2022/06/17 09:18:00;;;;;;;5.10;3.65;;;;;;;24.93;41.36;100597.49;1346090;90;21398;-89
2022/06/17 09:20:37;;;;;;;16.67;3.65;;;;;;;25.08;41.47;100595.63;1483372;92;21412;-89
2022/06/17 09:23:05;;;;;;;5.25;3.60;;;;;;;25.20;40.48;100594.58;1356124;92;22849;-89
2022/06/17 09:25:44;;;;;;;22.00;3.33;;;;;;;25.18;41.05;100598.59;1356342;91;21436;-89
2022/06/17 09:28:28;;;;;;;6.90;3.73;;;;;;;25.26;40.80;100611.77;1517272;90;21285;-87
2022/06/17 09:31:01;;;;;;;16.85;3.83;;;;;;;25.15;40.53;100599.89;1364371;92;21295;-89
2022/06/17 09:33:37;;;;;;;11.40;2.72;;;;;;;25.24;41.04;100606.29;1373781;93;22369;-88
2022/06/17 09:36:12;;;;;;;5.65;2.85;;;;;;;25.45;41.84;100604.25;1475556;91;21347;-89
2022/06/17 09:38:46;;;;;;;12.37;3.25;;;;;;;25.61;39.60;100602.67;1385228;91;21229;-89
2022/06/17 09:41:18;;;;;;;8.35;3.27;;;;;;;25.66;38.76;100611.72;1400908;91;21428;-89
2022/06/17 09:43:50;;;;;;;5.12;2.52;;;;;;;25.73;39.60;100619.69;1408234;91;21537;-88
2022/06/17 09:46:33;;;;;;;7.55;3.12;;;;;;;25.90;39.45;100615.69;1408768;92;22510;-88
2022/06/17 09:49:14;;;;;;;9.08;2.50;;;;;;;26.13;39.57;100613.91;1410458;92;21622;-86
2022/06/17 09:51:57;;;;;;;11.43;2.70;;;;;;;26.24;37.94;100608.91;1389322;92;21460;-88
2022/06/17 09:55:07;;;;;;;4.70;2.27;;;;;;;26.31;38.84;100606.33;1407489;92;22412;-88
2022/06/17 09:57:54;;;;;;;4.72;3.12;;;;;;;26.16;38.12;100618.30;1403855;92;21362;-87
2022/06/17 10:00:25;;;;;;;6.90;2.60;;;;;;;25.92;38.32;100621.67;1411948;90;21420;-86
2022/06/17 10:02:55;;;;;;;4.35;2.62;;;;;;;25.82;38.76;100617.41;1356662;93;21302;-86
2022/06/17 10:05:33;;;;;;;7.55;2.65;;;;;;;26.13;38.84;100623.41;1373965;91;21503;-86
2022/06/17 10:08:17;;;;;;;6.00;2.65;;;;;;;26.17;37.85;100608.27;1510278;90;21406;-88
2022/06/17 10:11:19;;;;;;;12.23;2.50;;;;;;;26.13;37.28;100615.27;1357871;93;22190;-87
2022/06/17 10:14:19;;;;;;;9.00;3.47;;;;;;;26.15;37.73;100615.28;1392062;90;21325;-86
2022/06/17 10:20:17;;;;;;;9.38;2.22;;;;;;;26.14;38.13;100613.64;1395181;93;21393;-85
2022/06/17 10:23:07;;;;;;;9.58;2.60;;;;;;;26.37;37.67;100614.01;1432870;91;21590;-86
2022/06/17 10:25:55;;;;;;;3.65;2.90;;;;;;;26.66;38.74;100608.50;1390740;94;21593;-88
2022/06/17 10:28:52;;;;;;;17.50;2.87;;;;;;;26.84;38.13;100616.34;1419423;90;21695;-86
2022/06/17 10:31:42;;;;;;;8.38;2.52;;;;;;;26.76;37.40;100622.23;1429757;91;21414;-86
2022/06/17 10:34:29;;;;;;;5.35;2.65;;;;;;;26.54;37.39;100614.84;1421607;89;21450;-86
2022/06/17 10:36:59;;;;;;;5.25;2.87;;;;;;;26.20;37.56;100628.11;1429159;91;21397;-86
2022/06/17 10:39:29;;;;;;;7.00;2.35;;;;;;;25.99;37.67;100627.77;1433499;90;21412;-88
2022/06/17 10:41:58;;;;;;;133.80;6.58;;;;;;;25.98;37.08;100630.20;1442060;90;21287;-87
2022/06/17 10:44:27;;;;;;;13.15;2.62;;;;;;;26.25;37.92;100622.23;1517849;89;22182;-88
2022/06/17 10:46:58;;;;;;;8.40;2.15;;;;;;;26.49;36.92;100622.88;1358497;91;21266;-85
2022/06/17 10:49:36;;;;;;;4.30;2.17;;;;;;;26.86;37.96;100619.63;1485390;90;21457;-89
2022/06/17 10:52:07;;;;;;;3.58;2.10;;;;;;;27.16;36.72;100614.33;1496994;90;22732;-87
2022/06/17 10:54:38;;;;;;;4.62;1.80;;;;;;;27.43;36.58;100612.48;1452395;91;21413;-86
2022/06/17 10:57:24;;;;;;;10.68;2.47;;;;;;;27.02;34.71;100616.59;1508550;90;21492;-82
2022/06/17 10:59:51;;;;;;;9.75;2.60;;;;;;;26.27;36.41;100604.38;1506307;90;22758;-86
2022/06/17 11:02:29;;;;;;;4.95;1.98;;;;;;;26.36;36.82;100613.73;1486124;90;21509;-83
2022/06/17 11:05:04;;;;;;;3.72;2.25;;;;;;;26.59;35.07;100614.66;1435721;90;21583;-85
2022/06/17 11:07:51;;;;;;;6.92;2.22;;;;;;;26.81;34.76;100616.84;1440481;89;21526;-92
2022/06/17 11:10:23;;;;;;;3.50;1.90;;;;;;;26.77;35.62;100619.78;1382306;92;21620;-93
2022/06/17 11:12:59;;;;;;;6.45;1.82;;;;;;;26.82;34.94;100610.36;1418734;91;22411;-92
2022/06/17 11:15:34;;;;;;;4.87;1.80;;;;;;;26.81;35.76;100604.62;1419992;90;21413;-94
2022/06/17 11:18:07;;;;;;;4.47;2.17;;;;;;;26.95;35.05;100604.55;1410951;90;21435;-91
2022/06/17 11:20:38;;;;;;;10.10;1.90;;;;;;;27.08;34.44;100609.34;1417130;91;21370;-89
2022/06/17 11:23:31;;;;;;;2.85;2.58;;;;;;;27.17;34.54;100604.59;1376229;92;21612;-88
2022/06/17 11:26:19;;;;;;;8.33;2.15;;;;;;;27.16;34.54;100597.52;1382812;94;22624;-88
2022/06/17 11:28:50;;;;;;;4.37;1.80;;;;;;;26.97;33.75;100605.12;1387818;94;21457;-90
2022/06/17 11:31:27;;;;;;;7.78;2.40;;;;;;;26.92;34.53;100607.77;1411683;92;21568;-88
2022/06/17 11:33:59;;;;;;;2.65;1.75;;;;;;;27.25;34.63;100599.77;1423433;90;22418;-90
2022/06/17 11:36:36;;;;;;;2.42;1.50;;;;;;;27.09;33.93;100602.28;1439760;90;22589;-90
2022/06/17 11:39:33;;;;;;;8.98;1.62;;;;;;;27.08;34.14;100602.55;1429523;90;21383;-91
2022/06/17 11:42:17;;;;;;;4.05;1.52;;;;;;;27.25;31.74;100603.33;1423598;90;21568;-89
2022/06/17 11:44:57;;;;;;;6.55;2.08;;;;;;;27.42;32.14;100608.14;1429328;90;21642;-91
2022/06/17 11:47:27;;;;;;;5.05;1.75;;;;;;;27.54;31.68;100601.73;1427583;90;21420;-92
2022/06/17 11:49:57;;;;;;;8.35;1.60;;;;;;;27.63;30.06;100604.27;1433411;90;21490;-88
2022/06/17 11:52:34;;;;;;;3.65;1.45;;;;;;;27.60;30.56;100588.48;1481035;90;21392;-89
2022/06/17 11:55:02;;;;;;;5.05;2.00;;;;;;;27.54;31.60;100600.38;1434978;90;23608;-89
2022/06/17 11:57:36;;;;;;;1.67;1.27;;;;;;;27.75;30.79;100603.57;1430849;90;21456;-91
2022/06/17 12:00:23;;;;;;;8.28;2.15;;;;;;;27.98;30.10;100592.12;1429263;90;21663;-90
2022/06/17 12:02:59;;;;;;;2.15;1.45;;;;;;;28.08;30.92;100600.34;1422073;91;21413;-90
2022/06/17 12:05:30;;;;;;;34.60;3.17;;;;;;;28.28;31.28;100596.45;1414030;91;21413;-90